Sredna Gora — LZLO — position and weather

sailwx.info

Track history (hours):
 
Tides and Currents Weather Stations Pressure Air Temp Water Temp Dewpoint Dewpoint Depression Visibility Wind Speed Wind Dir Waves Ship Positions

Sredna Gora

Last reported at 2018-Jun-18 14:13 UTC. Time now 2018-Jun-23 14:18 UTC.
Position N 44°31' E 022°12'.

; draft 2 m.

Type: Wing in ground effect craft. MMSI: 207261215.

Date/timePositionNaut miles runAvg speedWind from/ knotsBaromVisibWave heightAir tempDewpointWater temp
2018-Jun-18 14:13N 44°31' E 022°12'1 6.5
2018-Jun-18 14:01N 44°29' E 022°11'3 5.3
2018-Jun-18 13:31N 44°29' E 022°08'3 6.1
2018-Jun-18 13:01N 44°31' E 022°05'3 6.2
2018-Jun-18 12:31N 44°33' E 022°02'3 6.2
2018-Jun-18 12:00N 44°36' E 022°01'36 3.4
2018-Jun-18 01:31N 44°47' E 021°13'1 6.5
2018-Jun-18 01:19N 44°46' E 021°12'7 6.3
2018-Jun-18 00:16N 44°43' E 021°04'2 6.5
2018-Jun-17 23:57N 44°43' E 021°01'3 6.4
2018-Jun-17 23:30N 44°42' E 020°57'3 6.4
2018-Jun-17 23:00N 44°40' E 020°54'4 6.8
2018-Jun-17 22:25N 44°39' E 020°48'4 6.4
2018-Jun-17 21:47N 44°41' E 020°43'3 6.6
2018-Jun-17 21:19N 44°44' E 020°41'2 6.6
2018-Jun-17 21:00N 44°45' E 020°38'3 6.2
2018-Jun-17 20:30N 44°48' E 020°38'3 5.7
2018-Jun-17 20:01N 44°51' E 020°38'3 6.4
2018-Jun-17 19:31N 44°51' E 020°33'3 6.2
2018-Jun-17 19:00N 44°50' E 020°29'3 6.7
2018-Jun-17 18:31N 44°51' E 020°25'3 6.7
2018-Jun-17 18:00N 44°53' E 020°21'3 6.9
2018-Jun-17 17:31N 44°56' E 020°18'3 6.5
2018-Jun-17 17:00N 44°59' E 020°18'3 6.9
2018-Jun-17 16:31N 45°01' E 020°22'3 6.9
2018-Jun-17 16:00N 45°04' E 020°20'4 7.1
2018-Jun-17 15:30N 45°07' E 020°17'3 7.1
2018-Jun-17 15:01N 45°10' E 020°14'3 6.5
2018-Jun-17 14:30N 45°11' E 020°10'4 7.3
2018-Jun-17 14:01N 45°10' E 020°05'4 7.2
2018-Jun-17 13:31N 45°11' E 019°59'3 6.9
2018-Jun-17 13:01N 45°13' E 019°56'3 5.2
2018-Jun-17 12:31N 45°15' E 019°54'0 0.2
2018-Jun-17 12:01N 45°15' E 019°54'2 3.9
2018-Jun-17 11:31N 45°15' E 019°51'1 2.4
2018-Jun-17 11:01N 45°16' E 019°53'1 1.8
2018-Jun-17 10:31N 45°15' E 019°54'0 0.1
2018-Jun-17 10:01N 45°15' E 019°54'1 1.4
2018-Jun-17 09:31N 45°16' E 019°53'2 3.1
2018-Jun-17 09:01N 45°16' E 019°51'2 4.4
2018-Jun-17 08:31N 45°15' E 019°54'0 0.3
2018-Jun-17 08:01N 45°15' E 019°54'2 4.5
2018-Jun-17 07:30N 45°16' E 019°51'2 4.4
2018-Jun-17 07:01N 45°15' E 019°54'1 1.2
2018-Jun-17 06:31N 45°16' E 019°53'2 3.3
2018-Jun-17 06:01N 45°16' E 019°51'2 4.1
2018-Jun-17 05:31N 45°15' E 019°54'0 0.4
2018-Jun-17 05:01N 45°15' E 019°54'0 0.0
2018-Jun-17 04:30N 45°15' E 019°54'0 0.0
2018-Jun-17 04:01N 45°15' E 019°54'0 0.0
2018-Jun-17 03:31N 45°15' E 019°54'0 0.0
2018-Jun-17 03:01N 45°15' E 019°54'0 0.0
2018-Jun-17 02:31N 45°15' E 019°54'0 0.0
2018-Jun-17 02:00N 45°15' E 019°54'0 0.0
2018-Jun-17 01:30N 45°15' E 019°54'0 0.0
2018-Jun-17 01:00N 45°15' E 019°54'0 0.0
2018-Jun-17 00:30N 45°15' E 019°54'0 0.0
2018-Jun-17 00:00N 45°15' E 019°54'0 0.0
2018-Jun-16 23:30N 45°15' E 019°54'0 0.0
2018-Jun-16 23:00N 45°15' E 019°54'0 0.0
2018-Jun-16 22:30N 45°15' E 019°54'0 0.0
2018-Jun-16 22:00N 45°15' E 019°54'0 0.0
2018-Jun-16 21:30N 45°15' E 019°54'0 0.0
2018-Jun-16 21:00N 45°15' E 019°54'0 0.0
2018-Jun-16 20:30N 45°15' E 019°54'0 0.0
2018-Jun-16 20:00N 45°15' E 019°54'0 0.0
2018-Jun-16 19:30N 45°15' E 019°54'0 0.0
2018-Jun-16 19:00N 45°15' E 019°54'0 0.0
2018-Jun-16 18:30N 45°15' E 019°54'0 0.0
2018-Jun-16 18:00N 45°15' E 019°54'0 0.0
2018-Jun-16 17:30N 45°15' E 019°54'2 4.3
2018-Jun-16 17:00N 45°16' E 019°51'0 0.1
2018-Jun-16 16:30N 45°16' E 019°51'0 0.0
2018-Jun-16 16:00N 45°16' E 019°51'0 0.0
2018-Jun-16 15:30N 45°16' E 019°51'0 0.0
2018-Jun-16 15:00N 45°16' E 019°51'0 0.0
2018-Jun-16 14:30N 45°16' E 019°51'1 2.2
2018-Jun-16 14:00N 45°16' E 019°53'1 1.7
2018-Jun-16 13:30N 45°15' E 019°54'3 7.0
2018-Jun-16 13:01N 45°13' E 019°50'0 0.5
2018-Jun-16 12:30N 45°14' E 019°50'2 4.2
2018-Jun-16 12:01N 45°15' E 019°51'0 0.0
2018-Jun-16 11:31N 45°15' E 019°51'0 0.0
2018-Jun-16 11:01N 45°15' E 019°51'0 0.0
2018-Jun-16 10:31N 45°15' E 019°51'0 0.0
2018-Jun-16 10:01N 45°15' E 019°51'0 0.0
2018-Jun-16 09:31N 45°15' E 019°51'0 0.0
2018-Jun-16 09:01N 45°15' E 019°51'0 0.0
2018-Jun-16 08:31N 45°15' E 019°51'0 0.0
2018-Jun-16 08:01N 45°15' E 019°51'0 0.0
2018-Jun-16 07:31N 45°15' E 019°51'1 3.0
2018-Jun-16 07:01N 45°16' E 019°53'0 0.4
2018-Jun-16 06:31N 45°15' E 019°54'3 5.9
2018-Jun-16 06:01N 45°14' E 019°50'1 2.5
2018-Jun-16 05:31N 45°13' E 019°49'4 7.2
2018-Jun-16 05:01N 45°14' E 019°44'4 7.4
2018-Jun-16 04:30N 45°13' E 019°38'3 0.2
2018-Jun-15 14:58N 45°13' E 019°34'4 5.6
2018-Jun-15 14:19N 45°14' E 019°29'2 7.9
2018-Jun-15 14:00N 45°14' E 019°26'4 7.1
2018-Jun-15 13:29N 45°14' E 019°21'4 7.2
2018-Jun-15 12:59N 45°15' E 019°16'4 7.4
2018-Jun-15 12:31N 45°16' E 019°11'4 7.3
2018-Jun-15 12:00N 45°18' E 019°06'3 6.4
2018-Jun-15 11:31N 45°21' E 019°04'4 7.0
2018-Jun-15 11:01N 45°22' E 018°60'2 4.7
2018-Jun-15 10:30N 45°24' E 019°00'2 4.3
2018-Jun-15 10:00N 45°26' E 018°60'3 6.8
2018-Jun-15 09:31N 45°30' E 018°60'3 6.6
2018-Jun-15 09:01N 45°29' E 019°05'3 5.2
2018-Jun-15 08:31N 45°32' E 019°04'3 6.0
2018-Jun-15 08:01N 45°33' E 019°01'3 6.6
2018-Jun-15 07:30N 45°32' E 018°56'3 6.1
2018-Jun-15 07:01N 45°35' E 018°54'3 6.0
2018-Jun-15 06:31N 45°38' E 018°55'3 6.4
2018-Jun-15 06:01N 45°40' E 018°58'4 7.1
2018-Jun-15 05:31N 45°43' E 018°54'4 7.4
2018-Jun-15 05:01N 45°47' E 018°53'3 6.5
2018-Jun-15 04:31N 45°49' E 018°51'1 0.2
2018-Jun-14 21:34N 45°50' E 018°51'0 0.0
2018-Jun-14 21:25N 45°50' E 018°51'0 0.0
2018-Jun-14 20:19N 45°50' E 018°51'0 0.0
2018-Jun-14 19:55N 45°50' E 018°51'0 0.0
2018-Jun-14 19:28N 45°50' E 018°51'0 0.0
2018-Jun-14 17:19N 45°50' E 018°51'0 0.0
2018-Jun-14 16:07N 45°50' E 018°51'0 0.0
2018-Jun-14 15:46N 45°50' E 018°51'0 0.0
2018-Jun-14 14:27N 45°50' E 018°51'1 2.8
2018-Jun-14 14:00N 45°52' E 018°51'4 7.0
2018-Jun-14 13:27N 45°55' E 018°48'  
Track history (hours):
 
Tides and Currents Weather Stations Pressure Air Temp Water Temp Dewpoint Dewpoint Depression Visibility Wind Speed Wind Dir Waves Ship Positions

Sredna Gora

Last reported at 2018-Jun-18 14:13 UTC. Time now 2018-Jun-23 14:18 UTC.
Position N 44°31' E 022°12'.

; draft 2 m.

Type: Wing in ground effect craft. MMSI: 207261215.

Date/timePositionNaut miles runAvg speedWind from/ knotsBaromVisibWave heightAir tempDewpointWater temp
2018-Jun-18 14:13N 44°31' E 022°12'1 6.5
2018-Jun-18 14:01N 44°29' E 022°11'3 5.3
2018-Jun-18 13:31N 44°29' E 022°08'3 6.1
2018-Jun-18 13:01N 44°31' E 022°05'3 6.2
2018-Jun-18 12:31N 44°33' E 022°02'3 6.2
2018-Jun-18 12:00N 44°36' E 022°01'36 3.4
2018-Jun-18 01:31N 44°47' E 021°13'1 6.5
2018-Jun-18 01:19N 44°46' E 021°12'7 6.3
2018-Jun-18 00:16N 44°43' E 021°04'2 6.5
2018-Jun-17 23:57N 44°43' E 021°01'3 6.4
2018-Jun-17 23:30N 44°42' E 020°57'3 6.4
2018-Jun-17 23:00N 44°40' E 020°54'4 6.8
2018-Jun-17 22:25N 44°39' E 020°48'4 6.4
2018-Jun-17 21:47N 44°41' E 020°43'3 6.6
2018-Jun-17 21:19N 44°44' E 020°41'2 6.6
2018-Jun-17 21:00N 44°45' E 020°38'3 6.2
2018-Jun-17 20:30N 44°48' E 020°38'3 5.7
2018-Jun-17 20:01N 44°51' E 020°38'3 6.4
2018-Jun-17 19:31N 44°51' E 020°33'3 6.2
2018-Jun-17 19:00N 44°50' E 020°29'3 6.7
2018-Jun-17 18:31N 44°51' E 020°25'3 6.7
2018-Jun-17 18:00N 44°53' E 020°21'3 6.9
2018-Jun-17 17:31N 44°56' E 020°18'3 6.5
2018-Jun-17 17:00N 44°59' E 020°18'3 6.9
2018-Jun-17 16:31N 45°01' E 020°22'3 6.9
2018-Jun-17 16:00N 45°04' E 020°20'4 7.1
2018-Jun-17 15:30N 45°07' E 020°17'3 7.1
2018-Jun-17 15:01N 45°10' E 020°14'3 6.5
2018-Jun-17 14:30N 45°11' E 020°10'4 7.3
2018-Jun-17 14:01N 45°10' E 020°05'4 7.2
2018-Jun-17 13:31N 45°11' E 019°59'3 6.9
2018-Jun-17 13:01N 45°13' E 019°56'3 5.2
2018-Jun-17 12:31N 45°15' E 019°54'0 0.2
2018-Jun-17 12:01N 45°15' E 019°54'2 3.9
2018-Jun-17 11:31N 45°15' E 019°51'1 2.4
2018-Jun-17 11:01N 45°16' E 019°53'1 1.8
2018-Jun-17 10:31N 45°15' E 019°54'0 0.1
2018-Jun-17 10:01N 45°15' E 019°54'1 1.4
2018-Jun-17 09:31N 45°16' E 019°53'2 3.1
2018-Jun-17 09:01N 45°16' E 019°51'2 4.4
2018-Jun-17 08:31N 45°15' E 019°54'0 0.3
2018-Jun-17 08:01N 45°15' E 019°54'2 4.5
2018-Jun-17 07:30N 45°16' E 019°51'2 4.4
2018-Jun-17 07:01N 45°15' E 019°54'1 1.2
2018-Jun-17 06:31N 45°16' E 019°53'2 3.3
2018-Jun-17 06:01N 45°16' E 019°51'2 4.1
2018-Jun-17 05:31N 45°15' E 019°54'0 0.4
2018-Jun-17 05:01N 45°15' E 019°54'0 0.0
2018-Jun-17 04:30N 45°15' E 019°54'0 0.0
2018-Jun-17 04:01N 45°15' E 019°54'0 0.0
2018-Jun-17 03:31N 45°15' E 019°54'0 0.0
2018-Jun-17 03:01N 45°15' E 019°54'0 0.0
2018-Jun-17 02:31N 45°15' E 019°54'0 0.0
2018-Jun-17 02:00N 45°15' E 019°54'0 0.0
2018-Jun-17 01:30N 45°15' E 019°54'0 0.0
2018-Jun-17 01:00N 45°15' E 019°54'0 0.0
2018-Jun-17 00:30N 45°15' E 019°54'0 0.0
2018-Jun-17 00:00N 45°15' E 019°54'0 0.0
2018-Jun-16 23:30N 45°15' E 019°54'0 0.0
2018-Jun-16 23:00N 45°15' E 019°54'0 0.0
2018-Jun-16 22:30N 45°15' E 019°54'0 0.0
2018-Jun-16 22:00N 45°15' E 019°54'0 0.0
2018-Jun-16 21:30N 45°15' E 019°54'0 0.0
2018-Jun-16 21:00N 45°15' E 019°54'0 0.0
2018-Jun-16 20:30N 45°15' E 019°54'0 0.0
2018-Jun-16 20:00N 45°15' E 019°54'0 0.0
2018-Jun-16 19:30N 45°15' E 019°54'0 0.0
2018-Jun-16 19:00N 45°15' E 019°54'0 0.0
2018-Jun-16 18:30N 45°15' E 019°54'0 0.0
2018-Jun-16 18:00N 45°15' E 019°54'0 0.0
2018-Jun-16 17:30N 45°15' E 019°54'2 4.3
2018-Jun-16 17:00N 45°16' E 019°51'0 0.1
2018-Jun-16 16:30N 45°16' E 019°51'0 0.0
2018-Jun-16 16:00N 45°16' E 019°51'0 0.0
2018-Jun-16 15:30N 45°16' E 019°51'0 0.0
2018-Jun-16 15:00N 45°16' E 019°51'0 0.0
2018-Jun-16 14:30N 45°16' E 019°51'1 2.2
2018-Jun-16 14:00N 45°16' E 019°53'1 1.7
2018-Jun-16 13:30N 45°15' E 019°54'3 7.0
2018-Jun-16 13:01N 45°13' E 019°50'0 0.5
2018-Jun-16 12:30N 45°14' E 019°50'2 4.2
2018-Jun-16 12:01N 45°15' E 019°51'0 0.0
2018-Jun-16 11:31N 45°15' E 019°51'0 0.0
2018-Jun-16 11:01N 45°15' E 019°51'0 0.0
2018-Jun-16 10:31N 45°15' E 019°51'0 0.0
2018-Jun-16 10:01N 45°15' E 019°51'0 0.0
2018-Jun-16 09:31N 45°15' E 019°51'0 0.0
2018-Jun-16 09:01N 45°15' E 019°51'0 0.0
2018-Jun-16 08:31N 45°15' E 019°51'0 0.0
2018-Jun-16 08:01N 45°15' E 019°51'0 0.0
2018-Jun-16 07:31N 45°15' E 019°51'1 3.0
2018-Jun-16 07:01N 45°16' E 019°53'0 0.4
2018-Jun-16 06:31N 45°15' E 019°54'3 5.9
2018-Jun-16 06:01N 45°14' E 019°50'1 2.5
2018-Jun-16 05:31N 45°13' E 019°49'4 7.2
2018-Jun-16 05:01N 45°14' E 019°44'4 7.4
2018-Jun-16 04:30N 45°13' E 019°38'3 0.2
2018-Jun-15 14:58N 45°13' E 019°34'4 5.6
2018-Jun-15 14:19N 45°14' E 019°29'2 7.9
2018-Jun-15 14:00N 45°14' E 019°26'4 7.1
2018-Jun-15 13:29N 45°14' E 019°21'4 7.2
2018-Jun-15 12:59N 45°15' E 019°16'4 7.4
2018-Jun-15 12:31N 45°16' E 019°11'4 7.3
2018-Jun-15 12:00N 45°18' E 019°06'3 6.4
2018-Jun-15 11:31N 45°21' E 019°04'4 7.0
2018-Jun-15 11:01N 45°22' E 018°60'2 4.7
2018-Jun-15 10:30N 45°24' E 019°00'2 4.3
2018-Jun-15 10:00N 45°26' E 018°60'3 6.8
2018-Jun-15 09:31N 45°30' E 018°60'3 6.6
2018-Jun-15 09:01N 45°29' E 019°05'3 5.2
2018-Jun-15 08:31N 45°32' E 019°04'3 6.0
2018-Jun-15 08:01N 45°33' E 019°01'3 6.6
2018-Jun-15 07:30N 45°32' E 018°56'3 6.1
2018-Jun-15 07:01N 45°35' E 018°54'3 6.0
2018-Jun-15 06:31N 45°38' E 018°55'3 6.4
2018-Jun-15 06:01N 45°40' E 018°58'4 7.1
2018-Jun-15 05:31N 45°43' E 018°54'4 7.4
2018-Jun-15 05:01N 45°47' E 018°53'3 6.5
2018-Jun-15 04:31N 45°49' E 018°51'1 0.2
2018-Jun-14 21:34N 45°50' E 018°51'0 0.0
2018-Jun-14 21:25N 45°50' E 018°51'0 0.0
2018-Jun-14 20:19N 45°50' E 018°51'0 0.0
2018-Jun-14 19:55N 45°50' E 018°51'0 0.0
2018-Jun-14 19:28N 45°50' E 018°51'0 0.0
2018-Jun-14 17:19N 45°50' E 018°51'0 0.0
2018-Jun-14 16:07N 45°50' E 018°51'0 0.0
2018-Jun-14 15:46N 45°50' E 018°51'0 0.0
2018-Jun-14 14:27N 45°50' E 018°51'1 2.8
2018-Jun-14 14:00N 45°52' E 018°51'4 7.0
2018-Jun-14 13:27N 45°55' E 018°48'  

Dump ship's entire track history